createdAt,value
2022-08-11T00:02:35.246Z,99393.34
2022-08-11T00:05:11.289Z,99394.41
2022-08-11T00:07:45.306Z,99398.91
2022-08-11T00:10:15.731Z,99401.31
2022-08-11T00:12:45.085Z,99393.63
2022-08-11T00:15:14.513Z,99397.06
2022-08-11T00:17:43.668Z,99401.03
2022-08-11T00:20:17.160Z,99395.19
2022-08-11T00:22:47.879Z,99399.97
2022-08-11T00:25:19.124Z,99394.91
2022-08-11T00:27:48.970Z,99390.66
2022-08-11T00:30:18.167Z,99391.72
2022-08-11T00:32:54.304Z,99388.78
2022-08-11T00:35:54.864Z,99391.44
2022-08-11T00:38:17.692Z,99399.91
2022-08-11T00:40:54.743Z,99391.41
2022-08-11T00:43:26.772Z,99397.47
2022-08-11T00:46:10.498Z,99407.56
2022-08-11T00:48:48.657Z,99398.28
2022-08-11T00:51:26.555Z,99398.50
2022-08-11T00:54:30.202Z,99413.63
2022-08-11T00:57:36.713Z,99410.97
2022-08-11T01:00:14.331Z,99404.84
2022-08-11T01:02:58.155Z,99397.69
2022-08-11T01:05:44.380Z,99393.41
2022-08-11T01:08:38.745Z,99403.00
2022-08-11T01:11:35.639Z,99394.47
2022-08-11T01:14:41.895Z,99403.47
2022-08-11T01:17:50.045Z,99399.41
2022-08-11T01:21:00.965Z,99390.38
2022-08-11T01:24:19.792Z,99405.97
2022-08-11T01:27:19.241Z,99393.53
2022-08-11T01:30:11.733Z,99390.81
2022-08-11T01:33:26.242Z,99394.22
2022-08-11T01:36:27.719Z,99387.00
2022-08-11T01:39:24.386Z,99387.84
2022-08-11T01:42:34.118Z,99385.13
2022-08-11T01:45:21.924Z,99386.19
2022-08-11T01:48:03.979Z,99389.34
2022-08-11T01:50:41.395Z,99394.38
2022-08-11T01:53:20.128Z,99385.09
2022-08-11T01:56:02.336Z,99390.34
2022-08-11T01:58:43.945Z,99384.50
2022-08-11T02:01:28.917Z,99385.28
2022-08-11T02:04:01.552Z,99387.56
2022-08-11T02:06:51.248Z,99385.47
2022-08-11T02:09:27.341Z,99385.75
2022-08-11T02:12:00.297Z,99392.66
2022-08-11T02:14:35.745Z,99387.63
2022-08-11T02:17:15.306Z,99389.94
2022-08-11T02:20:12.537Z,99384.91
2022-08-11T02:23:10.901Z,99378.50
2022-08-11T02:25:46.179Z,99382.75
2022-08-11T02:28:21.273Z,99381.09
2022-08-11T02:32:11.025Z,99383.72
2022-08-11T02:34:12.815Z,99366.16
2022-08-11T02:36:45.743Z,99369.41
2022-08-11T02:39:16.326Z,99375.69
2022-08-11T02:42:32.047Z,99371.38
2022-08-11T02:45:10.516Z,99364.13
2022-08-11T02:48:04.984Z,99364.44
2022-08-11T02:50:37.107Z,99370.72
2022-08-11T02:53:11.233Z,99379.91
2022-08-11T02:55:57.304Z,99380.66
2022-08-11T02:58:35.617Z,99382.81
2022-08-11T03:01:11.459Z,99379.38
2022-08-11T03:03:48.464Z,99368.13
2022-08-11T03:06:26.027Z,99380.06
2022-08-11T03:08:57.533Z,99390.59
2022-08-11T03:11:59.578Z,99383.09
2022-08-11T03:14:55.790Z,99386.59
2022-08-11T03:17:30.832Z,99384.69
2022-08-11T03:20:33.285Z,99386.91
2022-08-11T03:23:19.528Z,99384.50
2022-08-11T03:25:56.195Z,99388.72
2022-08-11T03:28:30.793Z,99387.25
2022-08-11T03:31:12.003Z,99391.84
2022-08-11T03:34:07.197Z,99392.88
2022-08-11T03:37:17.151Z,99384.59
2022-08-11T03:39:56.213Z,99401.59
2022-08-11T03:42:30.172Z,99405.53
2022-08-11T03:45:08.784Z,99393.97
2022-08-11T03:47:55.547Z,99395.50
2022-08-11T03:50:33.896Z,99396.31
2022-08-11T03:53:15.173Z,99392.31
2022-08-11T03:56:06.273Z,99392.41
2022-08-11T03:58:59.226Z,99396.13
2022-08-11T04:02:05.994Z,99396.56
2022-08-11T04:05:08.710Z,99396.81
2022-08-11T04:08:02.005Z,99385.94
2022-08-11T04:11:02.237Z,99393.06
2022-08-11T04:13:56.932Z,99401.72
2022-08-11T04:16:38.322Z,99403.28
2022-08-11T04:19:31.275Z,99408.06
2022-08-11T04:22:31.302Z,99404.59
2022-08-11T04:25:57.956Z,99401.56
2022-08-11T04:28:50.082Z,99400.06
2022-08-11T04:31:50.362Z,99397.91
2022-08-11T04:34:37.865Z,99383.97
2022-08-11T04:37:42.007Z,99403.28
2022-08-11T04:40:26.687Z,99399.56
2022-08-11T04:44:02.216Z,99408.69
2022-08-11T04:46:58.467Z,99403.31
2022-08-11T04:50:06.839Z,99403.56
2022-08-11T04:53:08.020Z,99411.25
2022-08-11T04:56:19.722Z,99409.19
2022-08-11T04:59:27.515Z,99407.19
2022-08-11T05:02:41.140Z,99411.56
2022-08-11T05:05:33.455Z,99414.47
2022-08-11T05:08:52.874Z,99410.75
2022-08-11T05:12:02.299Z,99416.88
2022-08-11T05:14:51.960Z,99416.38
2022-08-11T05:17:46.611Z,99410.91
2022-08-11T05:20:33.243Z,99413.06
2022-08-11T05:23:24.074Z,99414.72
2022-08-11T05:26:47.853Z,99418.94
2022-08-11T05:29:21.935Z,99410.69
2022-08-11T05:32:14.236Z,99411.31
2022-08-11T05:34:52.845Z,99417.44
2022-08-11T05:37:27.219Z,99413.50
2022-08-11T05:40:16.842Z,99410.44
2022-08-11T05:43:09.194Z,99408.09
2022-08-11T05:46:02.898Z,99412.91
2022-08-11T05:48:53.326Z,99413.97
2022-08-11T05:51:40.082Z,99412.03
2022-08-11T05:54:42.235Z,99414.91
2022-08-11T05:57:49.062Z,99418.91
2022-08-11T06:00:03.584Z,99414.09
2022-08-11T06:02:32.573Z,99416.41
2022-08-11T06:05:02.332Z,99418.34
2022-08-11T06:07:47.268Z,99407.00
2022-08-11T06:10:29.978Z,99401.72
2022-08-11T06:13:01.090Z,99412.88
2022-08-11T06:15:34.066Z,99412.34
2022-08-11T06:18:04.142Z,99405.75
2022-08-11T06:20:37.420Z,99403.88
2022-08-11T06:23:08.627Z,99407.16
2022-08-11T06:25:38.161Z,99405.38
2022-08-11T06:28:08.872Z,99406.47
2022-08-11T06:30:42.019Z,99410.19
2022-08-11T06:33:13.336Z,99397.75
2022-08-11T06:35:49.709Z,99407.84
2022-08-11T06:38:29.538Z,99406.56
2022-08-11T06:41:20.114Z,99408.44
2022-08-11T06:43:55.972Z,99402.63
2022-08-11T06:46:33.606Z,99400.53
2022-08-11T06:49:03.430Z,99406.94
2022-08-11T06:51:32.562Z,99400.31
2022-08-11T06:54:05.595Z,99401.34
2022-08-11T06:57:12.477Z,99398.69
2022-08-11T07:00:02.599Z,99402.41
2022-08-11T07:02:35.105Z,99401.03
2022-08-11T07:05:08.620Z,99394.66
2022-08-11T07:08:35.023Z,99395.91
2022-08-11T07:12:14.162Z,99401.16
2022-08-11T07:15:04.448Z,99390.59
2022-08-11T07:17:37.426Z,99400.03
2022-08-11T07:20:25.414Z,99392.13
2022-08-11T07:23:15.141Z,99388.63
2022-08-11T07:26:02.636Z,99384.28
2022-08-11T07:28:49.712Z,99387.53
2022-08-11T07:31:23.639Z,99360.44
2022-08-11T07:34:08.332Z,99369.06
2022-08-11T07:36:42.027Z,99371.25
2022-08-11T07:39:16.757Z,99368.66
2022-08-11T07:41:46.380Z,99371.78
2022-08-11T07:44:17.080Z,99360.13
2022-08-11T07:47:06.303Z,99364.63
2022-08-11T07:49:55.732Z,99365.06
2022-08-11T07:52:30.519Z,99362.06
2022-08-11T07:55:01.136Z,99358.78
2022-08-11T07:58:14.563Z,99357.13
2022-08-11T08:00:59.205Z,99356.41
2022-08-11T08:03:54.150Z,99350.66
2022-08-11T08:06:43.047Z,99359.59
2022-08-11T08:09:29.603Z,99342.25
2022-08-11T08:12:16.505Z,99353.13
2022-08-11T08:15:02.963Z,99345.09
2022-08-11T08:18:10.046Z,99355.06
2022-08-11T08:20:42.967Z,99339.91
2022-08-11T08:23:13.872Z,99355.38
2022-08-11T08:25:45.576Z,99347.63
2022-08-11T08:28:17.426Z,99356.50
2022-08-11T08:30:49.774Z,99349.19
2022-08-11T08:33:21.841Z,99343.81
2022-08-11T08:36:11.386Z,99347.75
2022-08-11T08:38:44.329Z,99346.81
2022-08-11T08:41:16.383Z,99357.69
2022-08-11T08:43:49.297Z,99349.78
2022-08-11T08:46:21.673Z,99352.44
2022-08-11T08:48:53.406Z,99343.34
2022-08-11T08:52:01.976Z,99351.75
2022-08-11T08:54:31.885Z,99342.16
2022-08-11T08:57:03.126Z,99343.97
2022-08-11T08:59:47.890Z,99340.03
2022-08-11T09:02:22.042Z,99344.78
2022-08-11T09:05:05.499Z,99336.91
2022-08-11T09:07:39.725Z,99318.31
2022-08-11T09:10:12.086Z,99342.72
2022-08-11T09:12:43.659Z,99334.19
2022-08-11T09:15:13.259Z,99333.16
2022-08-11T09:17:45.007Z,99335.44
2022-08-11T09:20:14.849Z,99344.72
2022-08-11T09:23:54.621Z,99342.75
2022-08-11T09:26:16.090Z,99337.56
2022-08-11T09:28:46.171Z,99347.84
2022-08-11T09:31:15.935Z,99340.13
2022-08-11T09:33:45.205Z,99347.50
2022-08-11T09:36:32.145Z,99336.19
2022-08-11T09:39:15.622Z,99341.78
2022-08-11T09:42:01.300Z,99338.78
2022-08-11T09:44:48.809Z,99340.88
2022-08-11T09:47:23.233Z,99335.69
2022-08-11T09:49:54.065Z,99323.78
2022-08-11T09:52:24.861Z,99338.63
2022-08-11T09:54:54.640Z,99338.22
2022-08-11T09:57:42.765Z,99327.06
2022-08-11T10:00:14.286Z,99333.94
2022-08-11T10:02:45.832Z,99319.69
2022-08-11T10:05:34.448Z,99316.03
2022-08-11T10:08:04.167Z,99326.38
2022-08-11T10:10:35.983Z,99324.13
2022-08-11T10:14:04.875Z,99317.16
2022-08-11T10:16:14.762Z,99317.16
2022-08-11T10:18:53.354Z,99315.25
2022-08-11T10:21:29.747Z,99309.53
2022-08-11T10:24:19.116Z,99320.91
2022-08-11T10:26:57.026Z,99317.72
2022-08-11T10:29:51.131Z,99316.50
2022-08-11T10:32:46.396Z,99317.28
2022-08-11T10:35:28.720Z,99307.41
2022-08-11T10:38:06.066Z,99299.75
2022-08-11T10:40:36.753Z,99297.47
2022-08-11T10:43:07.184Z,99289.09
2022-08-11T10:45:56.176Z,99295.59
2022-08-11T10:51:14.960Z,99292.69
2022-08-11T10:54:03.340Z,99289.28
2022-08-11T10:56:52.224Z,99282.69
2022-08-11T10:59:22.181Z,99272.00
2022-08-11T11:01:51.465Z,99258.25
2022-08-11T11:04:25.528Z,99262.63
2022-08-11T11:07:03.752Z,99266.06
2022-08-11T11:09:34.684Z,99269.91
2022-08-11T11:12:26.385Z,99259.28
2022-08-11T11:15:17.316Z,99263.59
2022-08-11T11:18:01.375Z,99256.69
2022-08-11T11:20:36.155Z,99259.94
2022-08-11T11:23:13.618Z,99254.41
2022-08-11T11:26:10.866Z,99243.97
2022-08-11T11:28:51.128Z,99234.38
2022-08-11T11:31:29.430Z,99242.00
2022-08-11T11:34:12.566Z,99231.53
2022-08-11T11:36:46.816Z,99228.31
2022-08-11T11:39:19.210Z,99230.13
2022-08-11T11:41:48.335Z,99233.19
2022-08-11T11:44:17.374Z,99231.69
2022-08-11T11:46:46.617Z,99229.19
2022-08-11T11:49:17.101Z,99232.88
2022-08-11T11:51:50.723Z,99227.53
2022-08-11T11:54:23.718Z,99218.25
2022-08-11T11:56:53.752Z,99214.69
2022-08-11T11:59:40.258Z,99224.25
2022-08-11T12:02:11.657Z,99211.47
2022-08-11T12:04:43.031Z,99216.09
2022-08-11T12:07:29.982Z,99217.50
2022-08-11T12:10:00.753Z,99208.00
2022-08-11T12:12:46.985Z,99210.22
2022-08-11T12:15:19.231Z,99201.19
2022-08-11T12:18:08.409Z,99208.50
2022-08-11T12:20:38.629Z,99211.63
2022-08-11T12:23:27.269Z,99201.09
2022-08-11T12:26:26.918Z,99198.03
2022-08-11T12:28:58.579Z,99204.47
2022-08-11T12:31:27.427Z,99192.81
2022-08-11T12:34:01.949Z,99184.50
2022-08-11T12:36:36.346Z,99179.78
2022-08-11T12:39:24.336Z,99176.59
2022-08-11T12:42:16.060Z,99175.09
2022-08-11T12:45:03.064Z,99179.13
2022-08-11T12:48:57.277Z,99175.72
2022-08-11T12:50:59.386Z,99173.44
2022-08-11T12:53:29.965Z,99162.94
2022-08-11T12:56:19.015Z,99168.31
2022-08-11T12:58:50.608Z,99160.03
2022-08-11T13:01:38.816Z,99150.66
2022-08-11T13:04:25.206Z,99161.34
2022-08-11T13:06:54.105Z,99155.66
2022-08-11T13:09:24.089Z,99156.13
2022-08-11T13:12:10.228Z,99159.53
2022-08-11T13:14:40.937Z,99154.13
2022-08-11T13:17:44.165Z,99141.75
2022-08-11T13:20:14.593Z,99144.63
2022-08-11T13:22:46.080Z,99138.63
2022-08-11T13:25:16.282Z,99139.28
2022-08-11T13:27:46.424Z,99139.69
2022-08-11T13:30:39.121Z,99137.44
2022-08-11T13:33:09.847Z,99130.25
2022-08-11T13:35:39.027Z,99129.59
2022-08-11T13:38:19.449Z,99130.38
2022-08-11T13:40:56.687Z,99140.56
2022-08-11T13:43:25.866Z,99134.69
2022-08-11T13:46:16.552Z,99128.53
2022-08-11T13:48:45.655Z,99122.38
2022-08-11T13:51:35.190Z,99123.47
2022-08-11T13:54:07.280Z,99123.66
2022-08-11T13:56:39.734Z,99109.16
2022-08-11T13:59:09.997Z,99112.75
2022-08-11T14:02:19.639Z,99089.94
2022-08-11T14:04:34.395Z,99091.59
2022-08-11T14:07:07.906Z,99099.81
2022-08-11T14:09:38.521Z,99097.44
2022-08-11T14:12:28.266Z,99091.41
2022-08-11T14:15:07.619Z,99088.94
2022-08-11T14:17:48.142Z,99092.97
2022-08-11T14:20:38.284Z,99100.03
2022-08-11T14:23:07.499Z,99087.41
2022-08-11T14:26:00.234Z,99087.47
2022-08-11T14:28:34.369Z,99083.00
2022-08-11T14:31:05.169Z,99086.91
2022-08-11T14:34:00.199Z,99081.47
2022-08-11T14:36:27.340Z,99074.44
2022-08-11T14:38:56.474Z,99087.66
2022-08-11T14:42:09.963Z,99086.19
2022-08-11T14:44:52.055Z,99083.75
2022-08-11T14:47:23.233Z,99070.97
2022-08-11T14:50:09.462Z,99075.47
2022-08-11T14:52:51.121Z,99066.34
2022-08-11T14:55:38.893Z,99068.38
2022-08-11T14:58:10.239Z,99067.88
2022-08-11T15:00:39.830Z,99055.31
2022-08-11T15:03:11.741Z,99060.84
2022-08-11T15:05:56.338Z,99056.94
2022-08-11T15:08:46.796Z,99051.09
2022-08-11T15:11:34.142Z,99051.34
2022-08-11T15:14:05.404Z,99051.78
2022-08-11T15:16:52.166Z,99037.44
2022-08-11T15:19:22.024Z,99037.84
2022-08-11T15:22:10.349Z,99042.13
2022-08-11T15:24:39.792Z,99045.28
2022-08-11T15:27:32.975Z,99045.84
2022-08-11T15:30:33.882Z,99035.63
2022-08-11T15:33:25.078Z,99041.34
2022-08-11T15:36:12.325Z,99023.75
2022-08-11T15:38:45.051Z,99031.72
2022-08-11T15:41:35.873Z,99028.94
2022-08-11T15:44:51.205Z,99014.03
2022-08-11T15:47:17.061Z,99034.44
2022-08-11T15:50:11.325Z,99017.72
2022-08-11T15:52:38.778Z,99023.56
2022-08-11T15:55:09.701Z,99020.88
2022-08-11T15:57:57.898Z,99020.28
2022-08-11T16:00:44.809Z,99025.13
2022-08-11T16:03:54.399Z,99019.97
2022-08-11T16:06:23.918Z,99023.00
2022-08-11T16:08:55.278Z,99022.19
2022-08-11T16:11:26.433Z,99018.94
2022-08-11T16:14:13.356Z,99014.56
2022-08-11T16:16:42.813Z,99010.97
2022-08-11T16:19:12.406Z,99015.66
2022-08-11T16:21:43.535Z,99013.56
2022-08-11T16:25:58.215Z,99003.22
2022-08-11T16:27:13.482Z,99012.06
2022-08-11T16:29:45.771Z,98994.56
2022-08-11T16:32:18.072Z,99002.53
2022-08-11T16:35:07.199Z,99006.25
2022-08-11T16:37:55.374Z,99004.13
2022-08-11T16:40:24.522Z,99007.47
2022-08-11T16:43:12.451Z,98996.34
2022-08-11T16:46:00.132Z,99002.88
2022-08-11T16:48:35.711Z,98997.91
2022-08-11T16:51:07.352Z,99004.09
2022-08-11T16:53:48.984Z,99005.00
2022-08-11T16:56:34.082Z,99005.88
2022-08-11T16:59:15.206Z,99004.31
2022-08-11T17:01:47.809Z,99002.97
2022-08-11T17:04:39.700Z,99017.44
2022-08-11T17:07:41.872Z,99002.84
2022-08-11T17:10:52.861Z,99006.19
2022-08-11T17:13:31.184Z,99007.03
2022-08-11T17:16:12.265Z,99002.81
2022-08-11T17:18:48.135Z,99008.28
2022-08-11T17:21:20.011Z,98994.34
2022-08-11T17:23:55.039Z,99009.97
2022-08-11T17:26:51.504Z,99000.06
2022-08-11T17:29:22.632Z,98996.28
2022-08-11T17:32:11.143Z,98999.63
2022-08-11T17:34:58.366Z,98988.16
2022-08-11T17:37:30.506Z,98991.75
2022-08-11T17:40:00.419Z,98989.19
2022-08-11T17:42:48.746Z,98982.91
2022-08-11T17:45:36.596Z,98983.34
2022-08-11T17:48:25.038Z,98985.59
2022-08-11T17:50:54.822Z,98971.44
2022-08-11T17:53:41.696Z,98981.19
2022-08-11T17:56:50.091Z,98991.03
2022-08-11T17:59:37.269Z,98988.78
2022-08-11T18:02:20.792Z,98981.44
2022-08-11T18:05:12.344Z,98987.53
2022-08-11T18:08:00.635Z,98989.63
2022-08-11T18:10:49.019Z,98991.25
2022-08-11T18:13:35.645Z,98997.69
2022-08-11T18:16:22.627Z,98997.16
2022-08-11T18:19:09.147Z,99003.56
2022-08-11T18:22:07.826Z,99003.34
2022-08-11T18:25:06.370Z,99003.34
2022-08-11T18:27:53.424Z,99006.56
2022-08-11T18:30:40.162Z,99010.91
2022-08-11T18:36:39.245Z,99010.50
2022-08-11T18:39:29.594Z,99014.59
2022-08-11T18:42:28.824Z,99025.16
2022-08-11T18:45:18.187Z,99027.66
2022-08-11T18:48:05.351Z,99030.97
2022-08-11T18:51:30.093Z,99036.44
2022-08-11T18:54:01.362Z,99039.69
2022-08-11T18:56:49.461Z,99040.13
2022-08-11T18:59:38.938Z,99045.47
2022-08-11T19:02:25.823Z,99036.63
2022-08-11T19:05:12.998Z,99047.47
2022-08-11T19:08:00.183Z,99062.03
2022-08-11T19:10:46.596Z,99062.25
2022-08-11T19:13:34.958Z,99067.03
2022-08-11T19:16:23.155Z,99070.72
2022-08-11T19:19:10.233Z,99073.75
2022-08-11T19:21:58.404Z,99072.00
2022-08-11T19:24:45.397Z,99076.06
2022-08-11T19:27:32.552Z,99064.25
2022-08-11T19:30:20.832Z,99086.91
2022-08-11T19:33:07.876Z,99085.69
2022-08-11T19:35:55.190Z,99086.69
2022-08-11T19:38:41.414Z,99079.69
2022-08-11T19:41:52.203Z,99081.81
2022-08-11T19:44:36.300Z,99079.31
2022-08-11T19:47:24.442Z,99076.06
2022-08-11T19:50:11.373Z,99084.19
2022-08-11T19:52:59.925Z,99076.47
2022-08-11T19:55:47.337Z,99079.84
2022-08-11T19:58:34.583Z,99082.00
2022-08-11T20:01:20.918Z,99085.66
2022-08-11T20:04:09.164Z,99087.44
2022-08-11T20:06:56.166Z,99083.19
2022-08-11T20:10:06.058Z,99085.22
2022-08-11T20:12:51.071Z,99082.28
2022-08-11T20:15:38.474Z,99089.09
2022-08-11T20:18:26.054Z,99087.03
2022-08-11T20:21:25.516Z,99092.72
2022-08-11T20:24:19.520Z,99086.69
2022-08-11T20:27:07.179Z,99082.03
2022-08-11T20:30:06.969Z,99083.59
2022-08-11T20:32:54.040Z,99095.75
2022-08-11T20:35:41.337Z,99084.38
2022-08-11T20:38:30.849Z,99088.63
2022-08-11T20:41:17.441Z,99095.28
2022-08-11T20:44:09.088Z,99096.28
2022-08-11T20:46:56.958Z,99097.06
2022-08-11T20:49:53.850Z,99107.00
2022-08-11T20:52:47.218Z,99095.84
2022-08-11T20:55:51.275Z,99109.06
2022-08-11T21:01:46.984Z,99099.28
2022-08-11T21:04:54.843Z,99104.78
2022-08-11T21:07:42.998Z,99108.53
2022-08-11T21:10:29.635Z,99109.03
2022-08-11T21:13:24.323Z,99122.03
2022-08-11T21:16:25.086Z,99122.13
2022-08-11T21:19:17.836Z,99127.69
2022-08-11T21:22:06.466Z,99133.63
2022-08-11T21:24:53.585Z,99136.22
2022-08-11T21:27:40.743Z,99138.66
2022-08-11T21:30:29.945Z,99141.66
2022-08-11T21:33:16.512Z,99136.53
2022-08-11T21:36:03.186Z,99144.22
2022-08-11T21:38:50.051Z,99147.19
2022-08-11T21:41:36.900Z,99141.41
2022-08-11T21:44:25.168Z,99143.63
2022-08-11T21:47:17.337Z,99145.56
2022-08-11T21:50:06.659Z,99142.16
2022-08-11T21:52:54.778Z,99146.03
2022-08-11T21:55:41.857Z,99142.06
2022-08-11T21:58:29.146Z,99147.69
2022-08-11T22:01:15.904Z,99136.59
2022-08-11T22:04:04.595Z,99143.50
2022-08-11T22:06:51.087Z,99145.50
2022-08-11T22:09:37.688Z,99140.41
2022-08-11T22:12:30.562Z,99134.13
2022-08-11T22:15:21.824Z,99130.94
2022-08-11T22:18:08.011Z,99131.22
2022-08-11T22:20:56.413Z,99140.06
2022-08-11T22:23:43.276Z,99124.94
2022-08-11T22:26:32.152Z,99130.47
2022-08-11T22:29:19.538Z,99116.38
2022-08-11T22:32:25.681Z,99120.25
2022-08-11T22:35:12.450Z,99131.50
2022-08-11T22:38:00.638Z,99124.94
2022-08-11T22:40:46.901Z,99131.59
2022-08-11T22:43:33.038Z,99128.41
2022-08-11T22:46:19.157Z,99136.84
2022-08-11T22:49:06.751Z,99135.28
2022-08-11T22:51:53.511Z,99134.75
2022-08-11T22:54:41.493Z,99126.63
2022-08-11T22:57:28.592Z,99134.50
2022-08-11T23:00:15.567Z,99133.75
2022-08-11T23:03:01.689Z,99142.59
2022-08-11T23:05:48.204Z,99131.47
2022-08-11T23:08:34.900Z,99134.16
2022-08-11T23:11:22.980Z,99124.88
2022-08-11T23:14:09.808Z,99120.13
2022-08-11T23:16:56.558Z,99119.63
2022-08-11T23:20:06.770Z,99128.38
2022-08-11T23:22:50.800Z,99125.25
2022-08-11T23:25:37.198Z,99135.31
2022-08-11T23:28:24.850Z,99127.41
2022-08-11T23:31:13.476Z,99131.66
2022-08-11T23:34:02.756Z,99136.38
2022-08-11T23:36:48.909Z,99135.88
2022-08-11T23:39:35.580Z,99137.75
2022-08-11T23:42:22.586Z,99134.63
2022-08-11T23:45:12.277Z,99129.84
2022-08-11T23:47:59.107Z,99137.56
2022-08-11T23:50:45.567Z,99133.28
2022-08-11T23:53:32.439Z,99134.13
2022-08-11T23:56:21.990Z,99141.34
2022-08-11T23:59:08.595Z,99131.31
